Time;durP1;ratioP1;P1;durP2;ratioP2;P2;SDS_P1;SDS_P2;PMS_P1;PMS_P2;Temp;Humidity;BMP_temperature;BMP_pressure;BME280_temperature;BME280_humidity;BME280_pressure;Samples;Min_cycle;Max_cycle;Signal;HPM_P1;HPM_P2
2022/09/09 00:01:37;;;;;;;;;;;;;;;15.99;76.77;100656.69;5114861;27;19911;-56
2022/09/09 00:04:12;;;;;;;;;;;;;;;15.94;76.24;100639.31;5127836;27;19923;-57
2022/09/09 00:06:44;;;;;;;;;;;;;;;15.93;75.85;100643.84;5146548;27;19964;-56
2022/09/09 00:09:19;;;;;;;;;;;;;;;15.92;75.61;100642.16;5099754;28;20375;-56
2022/09/09 00:11:52;;;;;;;;;;;;;;;15.86;75.45;100640.84;5112620;28;20374;-56
2022/09/09 00:14:23;;;;;;;;;;;;;;;15.83;75.36;100638.44;5111757;28;20366;-56
2022/09/09 00:16:54;;;;;;;;;;;;;;;15.85;77.06;100640.97;5107250;27;19912;-56
2022/09/09 00:19:24;;;;;;;;;;;;;;;15.80;76.20;100630.69;5082766;28;19916;-56
2022/09/09 00:22:02;;;;;;;;;;;;;;;15.78;75.18;100637.16;5113563;27;20002;-56
2022/09/09 00:24:38;;;;;;;;;;;;;;;15.83;74.37;100637.59;5113081;28;19954;-57
2022/09/09 00:27:23;;;;;;;;;;;;;;;15.78;73.57;100639.84;5097260;27;20499;-56
2022/09/09 00:29:54;;;;;;;;;;;;;;;15.74;74.75;100641.09;5092148;28;19912;-56
2022/09/09 00:32:20;;;;;;;;;;;;;;;15.67;74.87;100632.69;5126663;27;19912;-56
2022/09/09 00:34:54;;;;;;;;;;;;;;;15.63;76.37;100632.13;5131697;27;19911;-56
2022/09/09 00:37:20;;;;;;;;;;;;;;;15.59;75.82;100625.34;5110331;27;19916;-56
2022/09/09 00:39:51;;;;;;;;;;;;;;;15.58;74.52;100630.81;5091186;28;19963;-56
2022/09/09 00:42:20;;;;;;;;;;;;;;;15.55;75.92;100621.22;5092996;28;20310;-56
2022/09/09 00:44:51;;;;;;;;;;;;;;;15.55;74.35;100615.84;5123244;27;19916;-56
2022/09/09 00:47:19;;;;;;;;;;;;;;;15.52;76.31;100616.13;5115494;27;19995;-56
2022/09/09 00:50:03;;;;;;;;;;;;;;;15.52;77.19;100608.09;5104690;28;19922;-56
2022/09/09 00:52:49;;;;;;;;;;;;;;;15.51;76.96;100614.44;5093317;28;19912;-57
2022/09/09 00:55:15;;;;;;;;;;;;;;;15.55;74.85;100612.34;5105471;28;19916;-56
2022/09/09 00:57:41;;;;;;;;;;;;;;;15.53;76.02;100607.13;5108397;28;19924;-56
2022/09/09 01:00:27;;;;;;;;;;;;;;;15.57;74.62;100610.38;5127602;27;20331;-56
2022/09/09 01:02:52;;;;;;;;;;;;;;;15.52;74.58;100609.91;5132246;27;19915;-56
2022/09/09 01:05:29;;;;;;;;;;;;;;;15.48;76.05;100608.50;5119718;27;19920;-57
2022/09/09 01:07:55;;;;;;;;;;;;;;;15.45;76.12;100613.16;5092263;28;19912;-56
2022/09/09 01:10:36;;;;;;;;;;;;;;;15.41;76.62;100611.72;5103757;28;20014;-56
2022/09/09 01:13:05;;;;;;;;;;;;;;;15.40;76.30;100614.53;5111502;28;19946;-56
2022/09/09 01:15:31;;;;;;;;;;;;;;;15.36;76.22;100607.75;5100479;28;19934;-56
2022/09/09 01:18:05;;;;;;;;;;;;;;;15.33;76.86;100605.34;5112108;28;19915;-56
2022/09/09 01:20:44;;;;;;;;;;;;;;;15.26;78.22;100607.69;5109942;28;19912;-56
2022/09/09 01:23:34;;;;;;;;;;;;;;;15.27;77.69;100604.03;5129652;28;19911;-56
2022/09/09 01:26:02;;;;;;;;;;;;;;;15.31;76.31;100600.09;5133096;27;19907;-56
2022/09/09 01:28:28;;;;;;;;;;;;;;;15.31;77.50;100599.25;5114884;27;19947;-56
2022/09/09 01:30:55;;;;;;;;;;;;;;;15.32;77.25;100593.75;5111972;28;19911;-56
2022/09/09 01:33:20;;;;;;;;;;;;;;;15.31;76.14;100599.25;5092700;28;19994;-56
2022/09/09 01:35:50;;;;;;;;;;;;;;;15.26;76.29;100599.63;5092159;28;19951;-56
2022/09/09 01:38:16;;;;;;;;;;;;;;;15.21;76.05;100586.66;5097997;28;19938;-56
2022/09/09 01:40:41;;;;;;;;;;;;;;;15.17;77.40;100590.56;5103552;27;19911;-56
2022/09/09 01:43:07;;;;;;;;;;;;;;;15.15;76.85;100592.53;5129045;27;20401;-56
2022/09/09 01:45:33;;;;;;;;;;;;;;;15.14;78.52;100590.00;5135305;27;19947;-56
2022/09/09 01:47:59;;;;;;;;;;;;;;;15.14;79.64;100579.28;5102654;27;20259;-56
2022/09/09 01:50:24;;;;;;;;;;;;;;;15.11;79.27;100579.53;5103610;28;19907;-57
2022/09/09 01:52:52;;;;;;;;;;;;;;;15.08;78.62;100582.47;5116204;28;19964;-56
2022/09/09 01:55:23;;;;;;;;;;;;;;;15.07;79.22;100587.00;5115814;27;20026;-56
2022/09/09 01:57:55;;;;;;;;;;;;;;;15.05;77.12;100578.22;5116121;28;19980;-57
2022/09/09 02:00:20;;;;;;;;;;;;;;;15.04;79.69;100578.38;5115834;28;19915;-56
2022/09/09 02:02:57;;;;;;;;;;;;;;;14.99;79.18;100573.41;5116213;28;19908;-56
2022/09/09 02:05:29;;;;;;;;;;;;;;;15.02;79.94;100569.63;5115508;27;20316;-56
2022/09/09 02:08:00;;;;;;;;;;;;;;;15.11;77.51;100567.00;5117109;27;19911;-56
2022/09/09 02:10:44;;;;;;;;;;;;;;;14.97;80.15;100564.66;5112311;28;19965;-56
2022/09/09 02:13:12;;;;;;;;;;;;;;;14.95;80.08;100558.59;5095973;28;19912;-56
2022/09/09 02:15:49;;;;;;;;;;;;;;;14.97;79.95;100561.97;5109077;27;20388;-56
2022/09/09 02:18:16;;;;;;;;;;;;;;;14.95;80.27;100569.31;5136329;27;19927;-57
2022/09/09 02:20:43;;;;;;;;;;;;;;;14.94;79.42;100570.28;5136167;27;20350;-56
2022/09/09 02:23:10;;;;;;;;;;;;;;;14.90;80.71;100572.38;5119551;27;19951;-56
2022/09/09 02:25:36;;;;;;;;;;;;;;;14.89;79.15;100567.16;5098546;28;20567;-56
2022/09/09 02:28:04;;;;;;;;;;;;;;;14.85;80.00;100571.91;5115518;28;19907;-56
2022/09/09 02:30:31;;;;;;;;;;;;;;;14.87;81.57;100566.44;5129341;27;19998;-56
2022/09/09 02:32:58;;;;;;;;;;;;;;;14.85;79.06;100563.88;5115664;28;19994;-56
2022/09/09 02:35:24;;;;;;;;;;;;;;;14.84;80.63;100558.66;5102423;28;20432;-56
2022/09/09 02:37:52;;;;;;;;;;;;;;;14.81;80.52;100561.59;5093868;28;19912;-56
2022/09/09 02:40:17;;;;;;;;;;;;;;;14.87;79.74;100558.41;5094989;28;19908;-56
2022/09/09 02:42:43;;;;;;;;;;;;;;;14.74;81.83;100554.09;5128907;27;19918;-56
2022/09/09 02:45:10;;;;;;;;;;;;;;;14.71;81.85;100548.16;5094469;28;19912;-56
2022/09/09 02:47:41;;;;;;;;;;;;;;;14.74;81.94;100551.44;5095748;27;19965;-56
2022/09/09 02:50:14;;;;;;;;;;;;;;;14.76;80.71;100553.94;5097522;28;19907;-57
2022/09/09 02:52:47;;;;;;;;;;;;;;;14.77;80.15;100559.19;5109602;28;19912;-56
2022/09/09 02:55:32;;;;;;;;;;;;;;;14.77;81.06;100561.88;5094546;28;20006;-56
2022/09/09 02:57:59;;;;;;;;;;;;;;;14.80;81.36;100565.28;5076027;28;19967;-56
2022/09/09 03:00:27;;;;;;;;;;;;;;;14.80;81.61;100557.25;5101729;27;20335;-56
2022/09/09 03:02:54;;;;;;;;;;;;;;;14.82;81.29;100564.13;5134519;27;19907;-56
2022/09/09 03:05:22;;;;;;;;;;;;;;;14.86;80.97;100567.44;5122422;27;19915;-56
2022/09/09 03:07:47;;;;;;;;;;;;;;;14.87;81.99;100563.75;5127434;27;19946;-56
2022/09/09 03:10:13;;;;;;;;;;;;;;;14.86;79.78;100564.75;5095189;28;20041;-56
2022/09/09 03:12:38;;;;;;;;;;;;;;;14.85;81.56;100569.22;5132580;27;19911;-56
2022/09/09 03:15:04;;;;;;;;;;;;;;;14.85;80.80;100563.88;5134818;27;19987;-56
2022/09/09 03:17:29;;;;;;;;;;;;;;;14.88;80.71;100573.47;5123486;27;19916;-56
2022/09/09 03:19:58;;;;;;;;;;;;;;;14.90;81.29;100571.53;5114374;28;19911;-56
2022/09/09 03:22:25;;;;;;;;;;;;;;;14.85;81.06;100574.59;5111205;27;20469;-56
2022/09/09 03:24:50;;;;;;;;;;;;;;;14.88;79.25;100577.03;5108085;28;19918;-56
2022/09/09 03:27:15;;;;;;;;;;;;;;;14.82;80.26;100577.53;5094347;28;19912;-56
2022/09/09 03:29:41;;;;;;;;;;;;;;;14.81;81.16;100573.16;5091907;28;20324;-56
2022/09/09 03:32:06;;;;;;;;;;;;;;;14.81;81.91;100566.97;5100334;27;19965;-56
2022/09/09 03:34:31;;;;;;;;;;;;;;;14.83;80.92;100573.88;5113803;28;19907;-56
2022/09/09 03:36:59;;;;;;;;;;;;;;;14.79;80.48;100576.94;5112880;28;20014;-56
2022/09/09 03:39:24;;;;;;;;;;;;;;;14.81;80.26;100569.63;5113933;28;20328;-56
2022/09/09 03:41:50;;;;;;;;;;;;;;;14.80;82.27;100570.63;5114420;28;19907;-56
2022/09/09 03:44:15;;;;;;;;;;;;;;;14.76;81.77;100573.56;5114747;27;20370;-56
2022/09/09 03:46:40;;;;;;;;;;;;;;;14.75;80.54;100571.84;5103544;27;20334;-56
2022/09/09 03:49:06;;;;;;;;;;;;;;;14.75;81.11;100568.34;5093339;28;19948;-56
2022/09/09 03:51:31;;;;;;;;;;;;;;;14.72;80.73;100569.44;5101527;27;19912;-57
2022/09/09 03:53:58;;;;;;;;;;;;;;;14.70;80.35;100566.03;5112885;28;19911;-56
2022/09/09 03:56:23;;;;;;;;;;;;;;;14.72;81.93;100572.13;5115240;27;20046;-56
2022/09/09 03:58:48;;;;;;;;;;;;;;;14.70;83.52;100570.53;5112257;28;20319;-56
2022/09/09 04:01:14;;;;;;;;;;;;;;;14.66;82.71;100567.28;5093847;28;19922;-56
2022/09/09 04:03:40;;;;;;;;;;;;;;;14.69;83.27;100559.00;5090651;28;20305;-56
2022/09/09 04:06:07;;;;;;;;;;;;;;;14.70;83.27;100559.84;5093320;28;19911;-56
2022/09/09 04:08:33;;;;;;;;;;;;;;;14.72;82.95;100565.91;5111559;27;19908;-56
2022/09/09 04:11:00;;;;;;;;;;;;;;;14.70;83.89;100555.31;5121314;27;19934;-56
2022/09/09 04:13:25;;;;;;;;;;;;;;;14.72;84.45;100557.88;5114925;27;19914;-56
2022/09/09 04:15:54;;;;;;;;;;;;;;;14.70;83.61;100558.00;5107423;27;20474;-56
2022/09/09 04:18:20;;;;;;;;;;;;;;;14.70;81.40;100566.03;5092767;28;20393;-56
2022/09/09 04:20:48;;;;;;;;;;;;;;;14.68;83.90;100553.78;5125841;27;19908;-56
2022/09/09 04:23:18;;;;;;;;;;;;;;;14.68;85.33;100559.13;5093086;28;20429;-56
2022/09/09 04:25:54;;;;;;;;;;;;;;;14.66;84.11;100556.56;5112479;27;19958;-56
2022/09/09 04:28:20;;;;;;;;;;;;;;;14.74;81.57;100554.09;5112116;28;19947;-56
2022/09/09 04:30:46;;;;;;;;;;;;;;;14.67;84.61;100549.38;5111843;28;19990;-56
2022/09/09 04:33:12;;;;;;;;;;;;;;;14.67;83.19;100547.56;5113033;28;19956;-56
2022/09/09 04:35:38;;;;;;;;;;;;;;;14.64;84.97;100549.66;5123577;27;20285;-57
2022/09/09 04:38:03;;;;;;;;;;;;;;;14.62;85.06;100547.13;5133627;27;19968;-57
2022/09/09 04:40:29;;;;;;;;;;;;;;;14.65;86.31;100548.69;5121033;27;20406;-56
2022/09/09 04:42:55;;;;;;;;;;;;;;;14.66;83.90;100551.22;5113097;28;19908;-56
2022/09/09 04:45:20;;;;;;;;;;;;;;;14.65;84.12;100540.66;5112503;27;20256;-56
2022/09/09 04:47:45;;;;;;;;;;;;;;;14.66;84.48;100548.53;5112807;28;19951;-56
2022/09/09 04:50:11;;;;;;;;;;;;;;;14.68;83.21;100535.03;5111606;28;19979;-56
2022/09/09 04:52:37;;;;;;;;;;;;;;;14.69;83.72;100534.91;5111918;28;20356;-56
2022/09/09 04:55:02;;;;;;;;;;;;;;;14.65;86.37;100532.63;5112562;27;19951;-56
2022/09/09 04:57:28;;;;;;;;;;;;;;;14.67;84.07;100531.50;5114043;28;19977;-56
2022/09/09 04:59:54;;;;;;;;;;;;;;;14.66;84.89;100534.31;5111201;28;20392;-56
2022/09/09 05:02:19;;;;;;;;;;;;;;;14.69;84.88;100529.53;5111283;28;19918;-56
2022/09/09 05:04:44;;;;;;;;;;;;;;;14.72;84.93;100533.78;5144817;27;19916;-56
2022/09/09 05:07:10;;;;;;;;;;;;;;;14.70;86.06;100538.41;5125909;28;20328;-56
2022/09/09 05:09:35;;;;;;;;;;;;;;;14.69;87.61;100534.06;5107307;28;19998;-56
2022/09/09 05:12:02;;;;;;;;;;;;;;;14.67;84.93;100542.19;5099516;28;19962;-56
2022/09/09 05:14:28;;;;;;;;;;;;;;;14.67;84.46;100530.66;5099556;28;19961;-56
2022/09/09 05:16:53;;;;;;;;;;;;;;;14.70;84.64;100533.91;5106765;27;19915;-56
2022/09/09 05:19:19;;;;;;;;;;;;;;;14.70;84.62;100528.56;5117133;27;20018;-56
2022/09/09 05:21:45;;;;;;;;;;;;;;;14.69;88.25;100537.56;5116980;28;19919;-56
2022/09/09 05:24:10;;;;;;;;;;;;;;;14.66;85.31;100529.81;5115396;28;20374;-56
2022/09/09 05:26:36;;;;;;;;;;;;;;;14.68;86.42;100535.03;5116595;27;19914;-56
2022/09/09 05:29:01;;;;;;;;;;;;;;;14.66;86.14;100528.97;5115960;28;20011;-56
2022/09/09 05:31:28;;;;;;;;;;;;;;;14.68;86.85;100519.81;5114614;28;20397;-56
2022/09/09 05:33:54;;;;;;;;;;;;;;;14.69;87.14;100526.88;5116720;28;20251;-56
2022/09/09 05:36:20;;;;;;;;;;;;;;;14.68;85.95;100525.19;5116410;27;19916;-56
2022/09/09 05:38:46;;;;;;;;;;;;;;;14.73;87.35;100532.81;5111537;28;19939;-56
2022/09/09 05:41:12;;;;;;;;;;;;;;;14.74;87.25;100538.03;5096404;28;19912;-56
2022/09/09 05:43:38;;;;;;;;;;;;;;;14.74;87.09;100540.72;5095401;28;19912;-56
2022/09/09 05:46:08;;;;;;;;;;;;;;;14.78;86.54;100538.63;5104049;27;19918;-56
2022/09/09 05:48:34;;;;;;;;;;;;;;;14.76;86.35;100541.44;5118576;27;19908;-56
2022/09/09 05:51:00;;;;;;;;;;;;;;;14.79;85.62;100550.16;5098389;28;19934;-56
2022/09/09 05:53:26;;;;;;;;;;;;;;;14.83;85.67;100547.13;5095815;28;19915;-56
2022/09/09 05:55:58;;;;;;;;;;;;;;;14.83;86.95;100546.28;5102265;28;19989;-56
2022/09/09 05:58:24;;;;;;;;;;;;;;;14.82;86.27;100553.44;5096535;27;19928;-56
2022/09/09 06:00:50;;;;;;;;;;;;;;;14.82;88.45;100553.44;5105784;27;19969;-56
2022/09/09 06:03:16;;;;;;;;;;;;;;;14.83;89.36;100556.97;5095564;28;20295;-56
2022/09/09 06:05:42;;;;;;;;;;;;;;;14.86;86.87;100554.88;5099927;27;19919;-56
2022/09/09 06:08:07;;;;;;;;;;;;;;;14.93;86.24;100545.31;5095789;28;20283;-56
2022/09/09 06:10:33;;;;;;;;;;;;;;;14.96;85.01;100546.91;5118231;27;19911;-56
2022/09/09 06:12:59;;;;;;;;;;;;;;;14.97;86.00;100554.81;5122411;27;20286;-56
2022/09/09 06:15:24;;;;;;;;;;;;;;;15.03;86.88;100553.44;5134752;27;19911;-56
2022/09/09 06:17:54;;;;;;;;;;;;;;;15.09;86.59;100555.56;5136467;27;20435;-56
2022/09/09 06:20:19;;;;;;;;;;;;;;;15.12;86.99;100554.47;5120941;27;19918;-56
2022/09/09 06:22:46;;;;;;;;;;;;;;;15.13;88.31;100546.28;5109538;28;19915;-56
2022/09/09 06:25:12;;;;;;;;;;;;;;;15.16;86.72;100556.72;5110917;27;19915;-56
2022/09/09 06:27:37;;;;;;;;;;;;;;;15.16;87.04;100554.06;5113432;28;19914;-56
2022/09/09 06:30:03;;;;;;;;;;;;;;;15.12;87.43;100554.47;5113922;28;20362;-56
2022/09/09 06:32:28;;;;;;;;;;;;;;;15.14;87.25;100553.31;5113345;28;19918;-56
2022/09/09 06:34:54;;;;;;;;;;;;;;;15.10;88.60;100551.91;5112843;27;20332;-56
2022/09/09 06:37:20;;;;;;;;;;;;;;;15.16;88.45;100556.72;5114178;27;19954;-56
2022/09/09 06:39:45;;;;;;;;;;;;;;;15.13;88.70;100548.97;5114730;27;19914;-56
2022/09/09 06:42:10;;;;;;;;;;;;;;;15.15;87.09;100549.69;5116256;27;20282;-55
2022/09/09 06:44:36;;;;;;;;;;;;;;;15.11;88.27;100545.56;5114696;27;20290;-56
2022/09/09 06:47:01;;;;;;;;;;;;;;;15.24;86.92;100549.88;5134122;27;20365;-56
2022/09/09 06:49:26;;;;;;;;;;;;;;;15.18;87.45;100551.25;5134152;27;19957;-56
2022/09/09 06:51:54;;;;;;;;;;;;;;;15.19;88.17;100537.72;5135690;27;19914;-56
2022/09/09 06:54:23;;;;;;;;;;;;;;;15.25;87.97;100547.03;5134288;27;20466;-56
2022/09/09 06:56:49;;;;;;;;;;;;;;;15.26;86.81;100553.25;5120788;27;20006;-56
2022/09/09 06:59:14;;;;;;;;;;;;;;;15.33;86.40;100554.41;5112912;28;20010;-56
2022/09/09 07:01:40;;;;;;;;;;;;;;;15.45;86.06;100547.97;5114818;28;19908;-56
2022/09/09 07:04:07;;;;;;;;;;;;;;;15.42;88.27;100551.78;5113552;28;19923;-56
2022/09/09 07:06:40;;;;;;;;;;;;;;;15.54;86.69;100554.34;5126117;27;19911;-56
2022/09/09 07:09:06;;;;;;;;;;;;;;;15.61;86.46;100553.66;5120497;27;20379;-56
2022/09/09 07:11:33;;;;;;;;;;;;;;;15.71;86.31;100548.38;5120075;27;19915;-56
2022/09/09 07:13:59;;;;;;;;;;;;;;;15.76;85.79;100551.47;5113267;27;19915;-56
2022/09/09 07:16:24;;;;;;;;;;;;;;;15.83;86.00;100554.47;5113372;28;19907;-57
2022/09/09 07:18:50;;;;;;;;;;;;;;;15.84;86.44;100556.16;5111616;28;20009;-56
2022/09/09 07:21:16;;;;;;;;;;;;;;;15.87;86.03;100554.03;5106380;28;19912;-57
2022/09/09 07:23:41;;;;;;;;;;;;;;;15.96;85.46;100559.56;5101465;27;19919;-56
2022/09/09 07:26:11;;;;;;;;;;;;;;;15.92;85.36;100552.78;5092478;27;19907;-56
2022/09/09 07:28:37;;;;;;;;;;;;;;;15.88;85.31;100552.19;5108134;28;19918;-56
2022/09/09 07:31:04;;;;;;;;;;;;;;;15.99;84.49;100545.88;5116813;27;19919;-56
2022/09/09 07:33:33;;;;;;;;;;;;;;;15.95;85.30;100552.50;5095606;28;19919;-56
2022/09/09 07:36:03;;;;;;;;;;;;;;;16.07;84.88;100559.44;5113444;27;19914;-56
2022/09/09 07:38:29;;;;;;;;;;;;;;;16.09;84.55;100557.47;5105470;28;19983;-56
2022/09/09 07:41:01;;;;;;;;;;;;;;;16.16;83.47;100553.22;5091288;28;20003;-56
2022/09/09 07:43:27;;;;;;;;;;;;;;;16.10;83.48;100553.78;5097786;28;19968;-56
2022/09/09 07:45:57;;;;;;;;;;;;;;;16.09;84.50;100552.97;5099873;27;20407;-57
2022/09/09 07:48:25;;;;;;;;;;;;;;;16.16;83.60;100550.56;5088977;28;19911;-56
2022/09/09 07:50:51;;;;;;;;;;;;;;;16.16;83.53;100544.34;5101237;27;19951;-56
2022/09/09 07:53:16;;;;;;;;;;;;;;;16.23;84.10;100548.16;5098676;28;19951;-56
2022/09/09 07:55:41;;;;;;;;;;;;;;;16.22;83.40;100531.19;5100198;28;19911;-56
2022/09/09 07:58:06;;;;;;;;;;;;;;;16.45;83.28;100549.72;5095644;28;20006;-56
2022/09/09 08:00:33;;;;;;;;;;;;;;;16.61;82.85;100549.97;5093043;27;19955;-56
2022/09/09 08:02:59;;;;;;;;;;;;;;;16.65;82.28;100546.03;5089528;28;19951;-55
2022/09/09 08:05:24;;;;;;;;;;;;;;;16.72;81.51;100554.34;5099998;27;19912;-56
2022/09/09 08:07:50;;;;;;;;;;;;;;;16.66;81.91;100554.91;5112495;27;19960;-56
2022/09/09 08:10:15;;;;;;;;;;;;;;;16.69;82.03;100557.31;5116040;27;19911;-56
2022/09/09 08:12:41;;;;;;;;;;;;;;;16.80;80.85;100554.50;5120948;27;20366;-56
2022/09/09 08:15:06;;;;;;;;;;;;;;;16.77;81.12;100549.44;5112139;28;20002;-56
2022/09/09 08:17:32;;;;;;;;;;;;;;;16.84;80.59;100547.84;5111980;28;19942;-56
2022/09/09 08:20:00;;;;;;;;;;;;;;;16.82;80.48;100543.59;5115561;27;19921;-56
2022/09/09 08:22:26;;;;;;;;;;;;;;;16.85;79.82;100543.31;5114542;27;20293;-56
2022/09/09 08:24:52;;;;;;;;;;;;;;;16.90;79.76;100546.41;5111818;28;19908;-56
2022/09/09 08:27:17;;;;;;;;;;;;;;;16.89;79.59;100548.28;5111972;28;19908;-56
2022/09/09 08:29:42;;;;;;;;;;;;;;;16.94;79.87;100550.50;5112653;28;20011;-56
2022/09/09 08:32:08;;;;;;;;;;;;;;;16.95;79.39;100545.00;5114137;28;20282;-56
2022/09/09 08:34:33;;;;;;;;;;;;;;;16.97;79.97;100548.41;5111709;28;19994;-56
2022/09/09 08:36:59;;;;;;;;;;;;;;;17.06;78.56;100548.50;5111783;28;19969;-56
2022/09/09 08:39:24;;;;;;;;;;;;;;;17.02;78.66;100564.91;5112750;28;19912;-56
2022/09/09 08:42:00;;;;;;;;;;;;;;;17.02;78.23;100553.31;5129027;27;19987;-56
2022/09/09 08:44:28;;;;;;;;;;;;;;;16.95;78.72;100555.75;5128644;27;19911;-56
2022/09/09 08:46:56;;;;;;;;;;;;;;;16.96;78.62;100559.28;5119578;27;19911;-56
2022/09/09 08:49:34;;;;;;;;;;;;;;;16.97;78.67;100561.84;5114858;27;19912;-56
2022/09/09 08:51:59;;;;;;;;;;;;;;;16.97;78.45;100561.84;5112722;28;20371;-56
2022/09/09 08:54:28;;;;;;;;;;;;;;;17.03;78.34;100568.47;5110824;28;19963;-56
2022/09/09 08:56:56;;;;;;;;;;;;;;;17.21;77.34;100563.19;5096786;28;19912;-56
2022/09/09 08:59:21;;;;;;;;;;;;;;;17.15;77.38;100563.75;5096042;28;19985;-56
2022/09/09 09:04:59;;;;;;;;;;;;;;;17.22;77.02;100573.75;5094628;28;19960;-55
2022/09/09 09:07:41;;;;;;;;;;;;;;;17.21;76.62;100590.91;5113724;27;19959;-55
2022/09/09 09:10:10;;;;;;;;;;;;;;;17.22;76.27;100584.50;5105528;28;19912;-56
2022/09/09 09:12:38;;;;;;;;;;;;;;;17.34;75.93;100587.88;5100943;28;20270;-56
2022/09/09 09:15:11;;;;;;;;;;;;;;;17.24;76.40;100585.22;5100733;28;20331;-56
2022/09/09 09:17:37;;;;;;;;;;;;;;;17.31;75.47;100584.63;5111502;28;19965;-56
2022/09/09 09:20:04;;;;;;;;;;;;;;;17.35;74.89;100588.72;5118363;27;19920;-56
2022/09/09 09:22:38;;;;;;;;;;;;;;;17.12;76.54;100593.59;5110566;28;19907;-56
2022/09/09 09:25:20;;;;;;;;;;;;;;;17.16;76.27;100595.84;5110788;28;20385;-55
2022/09/09 09:27:46;;;;;;;;;;;;;;;17.00;76.98;100601.84;5110574;28;19910;-55
2022/09/09 09:30:19;;;;;;;;;;;;;;;17.00;77.48;100596.47;5112692;28;20002;-56
2022/09/09 09:32:55;;;;;;;;;;;;;;;17.01;78.06;100603.53;5109318;28;19911;-56
2022/09/09 09:35:20;;;;;;;;;;;;;;;17.10;77.31;100600.97;5106422;28;20331;-56
2022/09/09 09:37:46;;;;;;;;;;;;;;;17.09;77.31;100599.25;5110696;28;19946;-56
2022/09/09 09:40:19;;;;;;;;;;;;;;;17.14;77.22;100595.13;5118856;28;19919;-56
2022/09/09 09:42:58;;;;;;;;;;;;;;;17.09;77.01;100588.50;5110843;28;20355;-56
2022/09/09 09:45:41;;;;;;;;;;;;;;;17.15;76.68;100579.88;5106049;28;20449;-56
2022/09/09 09:48:11;;;;;;;;;;;;;;;17.18;76.67;100582.28;5107608;28;19911;-56
2022/09/09 09:50:46;;;;;;;;;;;;;;;17.20;76.96;100580.28;5106817;28;19911;-56
2022/09/09 09:53:23;;;;;;;;;;;;;;;17.23;76.62;100588.03;5111840;28;19911;-55
2022/09/09 09:55:59;;;;;;;;;;;;;;;17.19;76.36;100582.13;5110228;28;19912;-56
2022/09/09 09:58:26;;;;;;;;;;;;;;;17.19;77.06;100594.72;5144832;27;20362;-56
2022/09/09 10:00:53;;;;;;;;;;;;;;;17.15;77.50;100586.09;5099691;28;19912;-56
2022/09/09 10:03:23;;;;;;;;;;;;;;;17.30;76.91;100591.84;5128106;27;19956;-55
2022/09/09 10:05:48;;;;;;;;;;;;;;;17.18;77.56;100582.28;5114205;28;19923;-56
2022/09/09 10:08:16;;;;;;;;;;;;;;;17.20;78.23;100582.97;5106881;28;19912;-55
2022/09/09 10:11:04;;;;;;;;;;;;;;;17.11;78.59;100583.84;5110990;27;20003;-53
2022/09/09 10:13:38;;;;;;;;;;;;;;;17.07;79.27;100593.19;5103829;27;19912;-56
2022/09/09 10:16:07;;;;;;;;;;;;;;;17.08;79.25;100590.34;5114439;27;20400;-56
2022/09/09 10:18:39;;;;;;;;;;;;;;;16.97;80.77;100582.44;5114078;28;19976;-57
2022/09/09 10:21:20;;;;;;;;;;;;;;;17.14;80.07;100589.75;5109663;27;19918;-56
2022/09/09 10:24:04;;;;;;;;;;;;;;;17.08;78.93;100597.56;5099785;28;19915;-56
2022/09/09 10:26:33;;;;;;;;;;;;;;;16.88;80.49;100607.50;5110640;27;19965;-56
2022/09/09 10:29:01;;;;;;;;;;;;;;;16.85;80.97;100610.47;5107345;27;19973;-55
2022/09/09 10:31:38;;;;;;;;;;;;;;;16.83;80.76;100605.25;5112144;27;19912;-56
2022/09/09 10:34:16;;;;;;;;;;;;;;;16.84;81.27;100604.25;5114144;28;19922;-56
2022/09/09 10:36:46;;;;;;;;;;;;;;;16.91;80.24;100616.16;5115476;27;19974;-55
2022/09/09 10:39:30;;;;;;;;;;;;;;;16.74;82.09;100609.63;5113115;28;19917;-56
2022/09/09 10:42:07;;;;;;;;;;;;;;;16.77;81.59;100606.69;5097998;28;19995;-55
2022/09/09 10:44:42;;;;;;;;;;;;;;;16.87;81.33;100608.50;5113750;28;20537;-57
2022/09/09 10:47:25;;;;;;;;;;;;;;;16.78;81.24;100607.53;5115389;27;19911;-56
2022/09/09 10:50:10;;;;;;;;;;;;;;;16.83;82.02;100609.78;5098518;28;19919;-56
2022/09/09 10:53:01;;;;;;;;;;;;;;;16.91;80.92;100613.47;5112792;28;20452;-55
2022/09/09 10:55:40;;;;;;;;;;;;;;;17.05;81.45;100604.06;5128767;27;19958;-55
2022/09/09 10:58:11;;;;;;;;;;;;;;;17.09;81.60;100594.75;5115213;27;19973;-56
2022/09/09 11:00:36;;;;;;;;;;;;;;;17.08;81.28;100611.00;5117719;27;19911;-55
2022/09/09 11:03:04;;;;;;;;;;;;;;;16.96;81.49;100597.72;5119554;27;19922;-56
2022/09/09 11:05:42;;;;;;;;;;;;;;;16.95;82.30;100605.94;5107113;27;20038;-55
2022/09/09 11:08:14;;;;;;;;;;;;;;;17.01;82.34;100600.84;5107139;28;19911;-56
2022/09/09 11:10:42;;;;;;;;;;;;;;;17.00;83.08;100601.84;5102296;27;19912;-56
2022/09/09 11:13:33;;;;;;;;;;;;;;;17.05;82.35;100593.31;5113956;28;19933;-56
2022/09/09 11:16:05;;;;;;;;;;;;;;;17.02;83.47;100602.53;5111469;28;19939;-56
2022/09/09 11:18:31;;;;;;;;;;;;;;;17.08;82.65;100605.63;5114276;28;19911;-55
2022/09/09 11:20:59;;;;;;;;;;;;;;;17.08;83.21;100606.47;5114562;28;20363;-56
2022/09/09 11:23:45;;;;;;;;;;;;;;;17.06;84.68;100600.41;5114788;27;19911;-56
2022/09/09 11:26:20;;;;;;;;;;;;;;;17.19;82.40;100610.84;5113189;28;20281;-56
2022/09/09 11:29:09;;;;;;;;;;;;;;;17.01;83.04;100600.84;5112124;28;19908;-56
2022/09/09 11:31:41;;;;;;;;;;;;;;;17.03;82.81;100606.94;5114158;27;19907;-56
2022/09/09 11:34:14;;;;;;;;;;;;;;;17.03;82.56;100595.34;5149878;27;19908;-56
2022/09/09 11:36:54;;;;;;;;;;;;;;;16.94;82.58;100606.91;5134901;27;19915;-55
2022/09/09 11:39:31;;;;;;;;;;;;;;;16.95;82.36;100596.03;5133128;27;20009;-55
2022/09/09 11:42:06;;;;;;;;;;;;;;;16.95;83.09;100603.25;5124540;27;19911;-55
2022/09/09 11:44:32;;;;;;;;;;;;;;;17.00;82.56;100604.53;5113437;28;20006;-56
2022/09/09 11:46:59;;;;;;;;;;;;;;;17.16;81.31;100589.63;5113396;28;19998;-56
2022/09/09 11:49:26;;;;;;;;;;;;;;;16.97;83.02;100599.44;5113768;28;19907;-56
2022/09/09 11:51:52;;;;;;;;;;;;;;;16.95;83.58;100604.09;5118589;27;20403;-55
2022/09/09 11:54:29;;;;;;;;;;;;;;;16.88;83.53;100605.66;5134197;27;19907;-56
2022/09/09 11:56:55;;;;;;;;;;;;;;;16.94;82.92;100602.41;5133026;27;19933;-56
2022/09/09 11:59:24;;;;;;;;;;;;;;;16.83;84.78;100601.72;5121826;27;19915;-55
2022/09/09 12:02:08;;;;;;;;;;;;;;;16.92;83.65;100595.50;5113429;27;19911;-55
2022/09/09 12:04:37;;;;;;;;;;;;;;;16.89;84.25;100585.88;5111703;28;19920;-56
2022/09/09 12:07:02;;;;;;;;;;;;;;;17.03;84.03;100587.28;5113741;28;19911;-56
2022/09/09 12:09:28;;;;;;;;;;;;;;;17.12;84.16;100589.09;5113271;27;19911;-55
2022/09/09 12:12:05;;;;;;;;;;;;;;;17.31;83.31;100588.16;5113281;27;20323;-55
2022/09/09 12:14:50;;;;;;;;;;;;;;;17.55;82.45;100590.34;5112543;27;20323;-55
2022/09/09 12:17:16;;;;;;;;;;;;;;;17.52;81.82;100579.03;5107597;27;19908;-55
2022/09/09 12:19:41;;;;;;;;;;;;;;;17.45;81.43;100579.63;5133607;27;19922;-55
2022/09/09 12:22:17;;;;;;;;;;;;;;;17.45;81.75;100593.06;5132553;27;19994;-55
2022/09/09 12:24:51;;;;;;;;;;;;;;;17.44;82.84;100590.50;5132875;27;19907;-55
2022/09/09 12:27:19;;;;;;;;;;;;;;;17.49;81.25;100588.25;5133297;27;19907;-55
2022/09/09 12:30:02;;;;;;;;;;;;;;;17.49;80.65;100583.69;5111961;27;19908;-55
2022/09/09 12:32:28;;;;;;;;;;;;;;;17.60;80.98;100579.16;5111846;28;19999;-56
2022/09/09 12:35:05;;;;;;;;;;;;;;;17.70;79.51;100571.84;5112703;28;19907;-55
2022/09/09 12:37:33;;;;;;;;;;;;;;;17.58;80.19;100583.81;5114309;28;19907;-55
2022/09/09 12:40:06;;;;;;;;;;;;;;;17.60;80.39;100579.16;5112750;28;19932;-55
2022/09/09 12:42:35;;;;;;;;;;;;;;;17.63;79.95;100574.31;5112717;28;19965;-56
2022/09/09 12:45:01;;;;;;;;;;;;;;;17.61;79.52;100570.06;5110940;28;19914;-56
2022/09/09 12:47:35;;;;;;;;;;;;;;;17.54;80.49;100566.28;5112547;28;19915;-55
2022/09/09 12:50:03;;;;;;;;;;;;;;;17.46;80.38;100572.41;5144888;27;19912;-55